createdAt,value
2018-06-25T00:01:16.532Z,1.30
2018-06-25T00:03:54.155Z,1.47
2018-06-25T00:06:31.952Z,1.70
2018-06-25T00:09:12.367Z,2.07
2018-06-25T00:11:48.846Z,1.80
2018-06-25T00:14:25.285Z,1.60
2018-06-25T00:17:01.837Z,2.10
2018-06-25T00:19:38.707Z,2.30
2018-06-25T00:22:29.494Z,2.00
2018-06-25T00:25:06.110Z,1.73
2018-06-25T00:27:42.762Z,1.70
2018-06-25T00:30:19.533Z,1.80
2018-06-25T00:32:56.417Z,1.83
2018-06-25T00:35:33.103Z,2.00
2018-06-25T00:38:11.125Z,2.30
2018-06-25T00:40:48.718Z,2.27
2018-06-25T00:43:35.612Z,2.23
2018-06-25T00:46:12.920Z,2.40
2018-06-25T00:48:50.897Z,2.03
2018-06-25T00:51:27.364Z,2.10
2018-06-25T00:54:04.612Z,2.53
2018-06-25T00:56:41.153Z,2.80
2018-06-25T00:59:34.647Z,2.70
2018-06-25T01:02:10.881Z,2.33
2018-06-25T01:04:47.328Z,2.33
2018-06-25T01:07:23.880Z,2.93
2018-06-25T01:10:00.317Z,2.60
2018-06-25T01:12:37.531Z,3.37
2018-06-25T01:15:14.058Z,2.53
2018-06-25T01:17:56.216Z,2.20
2018-06-25T01:20:35.054Z,2.33
2018-06-25T01:23:16.941Z,2.43
2018-06-25T01:25:53.505Z,3.17
2018-06-25T01:28:35.048Z,2.70
2018-06-25T01:31:12.808Z,2.77
2018-06-25T01:34:00.113Z,2.77
2018-06-25T01:36:38.877Z,2.57
2018-06-25T01:39:16.585Z,2.93
2018-06-25T01:41:54.235Z,3.00
2018-06-25T01:44:43.273Z,2.33
2018-06-25T01:47:20.431Z,2.50
2018-06-25T01:49:58.056Z,2.33
2018-06-25T01:52:34.649Z,2.43
2018-06-25T01:55:11.233Z,2.43
2018-06-25T01:57:48.274Z,3.23
2018-06-25T02:00:24.841Z,2.73
2018-06-25T02:03:01.472Z,2.83
2018-06-25T02:05:38.303Z,2.70
2018-06-25T02:08:15.066Z,3.30
2018-06-25T02:10:51.798Z,2.23
2018-06-25T02:13:28.437Z,3.10
2018-06-25T02:16:05.197Z,2.43
2018-06-25T02:18:42.579Z,2.53
2018-06-25T02:21:20.511Z,2.43
2018-06-25T02:23:56.975Z,2.60
2018-06-25T02:26:33.628Z,2.30
2018-06-25T02:29:10.381Z,2.57
2018-06-25T02:31:47.008Z,2.90
2018-06-25T02:34:25.080Z,3.00
2018-06-25T02:37:03.823Z,2.83
2018-06-25T02:39:43.212Z,2.97
2018-06-25T02:42:28.714Z,2.30
2018-06-25T02:45:05.960Z,3.03
2018-06-25T02:47:42.651Z,2.67
2018-06-25T02:50:19.325Z,2.40
2018-06-25T02:52:56.092Z,3.20
2018-06-25T02:55:32.731Z,2.90
2018-06-25T02:58:09.820Z,2.97
2018-06-25T03:00:46.434Z,3.10
2018-06-25T03:03:23.038Z,3.57
2018-06-25T03:05:59.582Z,3.73
2018-06-25T03:08:36.014Z,3.53
2018-06-25T03:11:16.182Z,4.30
2018-06-25T03:13:52.998Z,3.70
2018-06-25T03:16:29.748Z,4.00
2018-06-25T03:19:07.709Z,3.97
2018-06-25T03:21:44.223Z,4.20
2018-06-25T03:24:20.801Z,4.60
2018-06-25T03:26:57.325Z,4.00
2018-06-25T03:29:33.643Z,4.03
2018-06-25T03:32:10.129Z,3.90
2018-06-25T03:34:46.540Z,3.23
2018-06-25T03:37:24.590Z,3.23
2018-06-25T03:40:06.622Z,3.90
2018-06-25T03:42:47.927Z,3.77
2018-06-25T03:45:29.232Z,3.50
2018-06-25T03:48:06.689Z,3.90
2018-06-25T03:51:02.653Z,3.23
2018-06-25T03:53:39.077Z,4.00
2018-06-25T03:56:15.780Z,3.47
2018-06-25T03:58:52.673Z,4.27
2018-06-25T04:01:34.122Z,3.50
2018-06-25T04:07:17.489Z,2.90
2018-06-25T04:09:54.082Z,3.43
2018-06-25T04:12:30.560Z,3.33
2018-06-25T04:15:07.346Z,3.33
2018-06-25T04:17:43.792Z,3.20
2018-06-25T04:20:21.120Z,3.40
2018-06-25T04:23:02.639Z,3.43
2018-06-25T04:25:40.410Z,3.50
2018-06-25T04:28:18.273Z,3.33
2018-06-25T04:30:55.510Z,4.10
2018-06-25T04:33:31.966Z,4.40
2018-06-25T04:36:09.342Z,3.23
2018-06-25T04:38:46.398Z,3.40
2018-06-25T04:41:23.122Z,4.17
2018-06-25T04:44:00.791Z,4.13
2018-06-25T04:46:37.519Z,4.00
2018-06-25T04:49:14.005Z,3.77
2018-06-25T04:51:52.491Z,4.40
2018-06-25T04:54:30.634Z,3.80
2018-06-25T04:57:16.111Z,4.43
2018-06-25T04:59:52.492Z,4.30
2018-06-25T05:02:28.928Z,3.60
2018-06-25T05:05:05.616Z,4.07
2018-06-25T05:07:42.081Z,4.60
2018-06-25T05:10:18.441Z,3.70
2018-06-25T05:12:55.891Z,4.53
2018-06-25T05:15:32.270Z,5.90
2018-06-25T05:18:08.720Z,4.00
2018-06-25T05:20:45.461Z,3.40
2018-06-25T05:23:21.821Z,2.93
2018-06-25T05:25:58.457Z,2.90
2018-06-25T05:28:35.022Z,2.67
2018-06-25T05:31:13.663Z,2.80
2018-06-25T05:33:50.896Z,6.60
2018-06-25T05:36:27.430Z,2.63
2018-06-25T05:39:06.674Z,3.23
2018-06-25T05:41:43.883Z,2.67
2018-06-25T05:44:21.289Z,2.60
2018-06-25T05:46:57.900Z,2.90
2018-06-25T05:49:34.518Z,2.80
2018-06-25T05:52:17.693Z,2.47
2018-06-25T05:54:54.467Z,2.60
2018-06-25T05:57:33.652Z,5.60
2018-06-25T06:00:11.387Z,2.83
2018-06-25T06:02:48.658Z,4.40
2018-06-25T06:05:25.360Z,2.40
2018-06-25T06:08:03.072Z,2.60
2018-06-25T06:10:40.378Z,2.60
2018-06-25T06:13:17.376Z,2.40
2018-06-25T06:15:54.025Z,2.20
2018-06-25T06:18:30.552Z,2.77
2018-06-25T06:21:07.662Z,2.40
2018-06-25T06:23:44.338Z,2.13
2018-06-25T06:26:21.358Z,2.30
2018-06-25T06:28:57.880Z,2.83
2018-06-25T06:31:35.368Z,4.87
2018-06-25T06:34:18.448Z,2.60
2018-06-25T06:36:55.037Z,2.57
2018-06-25T06:39:31.751Z,2.63
2018-06-25T06:42:08.481Z,2.47
2018-06-25T06:44:45.035Z,1.90
2018-06-25T06:47:21.723Z,2.30
2018-06-25T06:49:58.389Z,1.83
2018-06-25T06:52:35.293Z,3.80
2018-06-25T06:55:12.053Z,1.90
2018-06-25T06:57:49.634Z,1.87
2018-06-25T07:00:27.200Z,3.80
2018-06-25T07:03:08.974Z,1.97
2018-06-25T07:05:45.527Z,1.57
2018-06-25T07:08:22.957Z,1.63
2018-06-25T07:10:59.501Z,1.97
2018-06-25T07:13:36.278Z,1.50
2018-06-25T07:16:13.319Z,1.63
2018-06-25T07:18:50.109Z,1.67
2018-06-25T07:21:27.050Z,24.63
2018-06-25T07:24:03.869Z,1.90
2018-06-25T07:26:40.610Z,1.20
2018-06-25T07:29:17.412Z,1.27
2018-06-25T07:31:54.293Z,1.30
2018-06-25T07:34:31.091Z,3.23
2018-06-25T07:37:07.596Z,8.30
2018-06-25T07:39:44.949Z,0.70
2018-06-25T07:42:21.401Z,0.90
2018-06-25T07:44:58.651Z,0.80
2018-06-25T07:47:35.286Z,0.70
2018-06-25T07:50:15.651Z,0.90
2018-06-25T07:52:53.245Z,0.70
2018-06-25T07:55:30.592Z,0.80
2018-06-25T07:58:07.417Z,1.10
2018-06-25T08:00:43.888Z,0.80
2018-06-25T08:03:20.455Z,0.80
2018-06-25T08:05:56.915Z,1.00
2018-06-25T08:08:33.618Z,0.73
2018-06-25T08:11:10.326Z,0.80
2018-06-25T08:13:46.957Z,0.80
2018-06-25T08:16:25.523Z,0.60
2018-06-25T08:19:02.265Z,0.60
2018-06-25T08:21:39.025Z,0.50
2018-06-25T08:24:16.417Z,0.50
2018-06-25T08:26:53.091Z,0.50
2018-06-25T08:29:54.001Z,0.40
2018-06-25T08:32:30.848Z,0.50
2018-06-25T08:35:07.788Z,0.40
2018-06-25T08:37:44.460Z,0.40
2018-06-25T08:40:21.091Z,0.40
2018-06-25T08:42:57.697Z,0.60
2018-06-25T08:45:34.107Z,0.83
2018-06-25T08:48:10.571Z,0.40
2018-06-25T08:50:46.998Z,5.43
2018-06-25T08:53:23.663Z,0.60
2018-06-25T08:56:00.238Z,0.63
2018-06-25T08:58:36.604Z,0.50
2018-06-25T09:01:13.068Z,0.60
2018-06-25T09:03:49.725Z,0.67
2018-06-25T09:06:26.255Z,0.50
2018-06-25T09:09:02.885Z,0.60
2018-06-25T09:11:46.866Z,0.60
2018-06-25T09:14:23.472Z,0.40
2018-06-25T09:16:59.943Z,0.60
2018-06-25T09:19:36.410Z,0.57
2018-06-25T09:22:13.044Z,0.40
2018-06-25T09:24:49.592Z,0.50
2018-06-25T09:27:31.988Z,0.40
2018-06-25T09:30:08.851Z,0.50
2018-06-25T09:32:45.560Z,0.47
2018-06-25T09:35:22.237Z,0.30
2018-06-25T09:37:59.157Z,0.50
2018-06-25T09:40:35.547Z,0.43
2018-06-25T09:43:12.352Z,0.47
2018-06-25T09:45:49.994Z,0.50
2018-06-25T09:48:28.170Z,0.40
2018-06-25T09:51:04.895Z,0.40
2018-06-25T09:53:45.814Z,0.30
2018-06-25T09:56:22.927Z,1.13
2018-06-25T09:58:59.674Z,0.50
2018-06-25T10:01:36.346Z,0.40
2018-06-25T10:04:22.679Z,0.53
2018-06-25T10:06:59.659Z,0.60
2018-06-25T10:09:36.560Z,0.40
2018-06-25T10:12:13.443Z,0.57
2018-06-25T10:14:54.259Z,0.70
2018-06-25T10:17:37.409Z,0.50
2018-06-25T10:20:15.433Z,0.50
2018-06-25T10:22:52.208Z,0.47
2018-06-25T10:25:29.677Z,0.80
2018-06-25T10:28:06.263Z,0.63
2018-06-25T10:30:42.677Z,0.40
2018-06-25T10:33:20.369Z,0.50
2018-06-25T10:35:57.251Z,0.50
2018-06-25T10:38:34.262Z,0.40
2018-06-25T10:41:12.258Z,0.57
2018-06-25T10:43:49.018Z,0.70
2018-06-25T10:46:25.593Z,0.40
2018-06-25T10:49:02.910Z,0.50
2018-06-25T10:51:40.185Z,0.40
2018-06-25T10:54:16.909Z,0.43
2018-06-25T10:56:54.130Z,0.60
2018-06-25T10:59:32.394Z,0.50
2018-06-25T11:02:10.403Z,0.57
2018-06-25T11:04:47.215Z,0.80
2018-06-25T11:07:23.908Z,0.60
2018-06-25T11:10:00.745Z,0.70
2018-06-25T11:12:38.342Z,0.40
2018-06-25T11:15:15.238Z,0.63
2018-06-25T11:17:52.015Z,0.80
2018-06-25T11:20:30.401Z,0.50
2018-06-25T11:23:08.519Z,0.30
2018-06-25T11:25:45.441Z,0.40
2018-06-25T11:28:22.848Z,0.50
2018-06-25T11:31:01.793Z,0.40
2018-06-25T11:33:39.526Z,0.50
2018-06-25T11:36:17.953Z,0.87
2018-06-25T11:38:54.635Z,0.40
2018-06-25T11:41:31.712Z,0.50
2018-06-25T11:44:09.168Z,0.50
2018-06-25T11:46:45.829Z,0.50
2018-06-25T11:49:22.477Z,0.70
2018-06-25T11:51:59.060Z,0.67
2018-06-25T11:54:35.608Z,0.70
2018-06-25T11:57:12.322Z,0.57
2018-06-25T11:59:49.237Z,0.57
2018-06-25T12:02:26.568Z,0.63
2018-06-25T12:05:03.269Z,0.37
2018-06-25T12:07:39.752Z,1.07
2018-06-25T12:10:16.405Z,1.90
2018-06-25T12:12:53.129Z,1.60
2018-06-25T12:15:29.698Z,0.87
2018-06-25T12:18:06.266Z,0.53
2018-06-25T12:20:44.811Z,0.50
2018-06-25T12:23:21.513Z,0.60
2018-06-25T12:25:59.383Z,0.47
2018-06-25T12:28:35.759Z,0.50
2018-06-25T12:31:12.391Z,0.53
2018-06-25T12:33:48.755Z,0.53
2018-06-25T12:36:25.571Z,0.50
2018-06-25T12:39:02.056Z,0.60
2018-06-25T12:41:38.493Z,0.60
2018-06-25T12:44:15.091Z,0.50
2018-06-25T12:46:52.318Z,0.60
2018-06-25T12:49:28.864Z,0.50
2018-06-25T12:52:05.652Z,0.70
2018-06-25T12:54:42.257Z,0.47
2018-06-25T12:57:18.786Z,0.60
2018-06-25T12:59:55.347Z,0.50
2018-06-25T13:02:32.005Z,0.50
2018-06-25T13:05:08.664Z,0.50
2018-06-25T13:07:45.331Z,0.43
2018-06-25T13:10:22.128Z,0.40
2018-06-25T13:12:58.749Z,0.57
2018-06-25T13:15:35.479Z,0.53
2018-06-25T13:18:13.242Z,0.60
2018-06-25T13:20:49.925Z,0.40
2018-06-25T13:23:26.594Z,0.50
2018-06-25T13:26:03.503Z,0.40
2018-06-25T13:28:40.095Z,0.30
2018-06-25T13:31:17.153Z,0.70
2018-06-25T13:33:53.639Z,0.40
2018-06-25T13:36:34.910Z,0.50
2018-06-25T13:39:12.394Z,0.50
2018-06-25T13:41:50.241Z,0.43
2018-06-25T13:44:29.718Z,0.43
2018-06-25T13:47:17.323Z,0.47
2018-06-25T13:49:53.896Z,0.57
2018-06-25T13:52:31.492Z,0.50
2018-06-25T13:58:17.673Z,0.40
2018-06-25T14:00:55.275Z,0.50
2018-06-25T14:03:31.805Z,0.50
2018-06-25T14:06:08.355Z,0.40
2018-06-25T14:08:44.886Z,0.60
2018-06-25T14:11:21.603Z,0.73
2018-06-25T14:17:06.658Z,0.53
2018-06-25T14:19:43.507Z,0.40
2018-06-25T14:22:20.300Z,0.63
2018-06-25T14:25:01.971Z,0.60
2018-06-25T14:27:45.076Z,0.40
2018-06-25T14:30:26.893Z,0.47
2018-06-25T14:33:03.005Z,0.67
2018-06-25T14:35:39.580Z,0.60
2018-06-25T14:38:16.642Z,0.70
2018-06-25T14:40:54.373Z,0.47
2018-06-25T14:43:31.391Z,0.60
2018-06-25T14:46:07.921Z,0.30
2018-06-25T14:48:46.531Z,0.60
2018-06-25T14:51:23.352Z,0.60
2018-06-25T14:54:00.360Z,0.70
2018-06-25T14:56:37.713Z,0.63
2018-06-25T14:59:14.580Z,0.63
2018-06-25T15:01:51.258Z,0.43
2018-06-25T15:04:30.914Z,11.67
2018-06-25T15:07:16.863Z,1.00
2018-06-25T15:09:59.260Z,2.43
2018-06-25T15:12:37.730Z,1.13
2018-06-25T15:15:17.290Z,0.67
2018-06-25T15:17:56.814Z,0.60
2018-06-25T15:20:33.453Z,0.47
2018-06-25T15:23:14.295Z,0.60
2018-06-25T15:25:57.768Z,0.67
2018-06-25T15:28:35.123Z,0.50
2018-06-25T15:31:13.126Z,0.70
2018-06-25T15:33:54.635Z,0.50
2018-06-25T15:36:33.516Z,0.70
2018-06-25T15:39:13.214Z,0.50
2018-06-25T15:41:53.273Z,0.50
2018-06-25T15:44:30.104Z,0.40
2018-06-25T15:47:12.601Z,0.70
2018-06-25T15:49:49.148Z,1.10
2018-06-25T15:52:36.465Z,0.50
2018-06-25T15:55:13.208Z,0.60
2018-06-25T15:57:49.820Z,0.80
2018-06-25T16:00:26.306Z,0.50
2018-06-25T16:03:03.771Z,0.70
2018-06-25T16:05:40.206Z,0.67
2018-06-25T16:08:16.951Z,0.73
2018-06-25T16:10:53.684Z,0.80
2018-06-25T16:13:30.476Z,0.63
2018-06-25T16:16:07.204Z,0.73
2018-06-25T16:18:43.915Z,1.10
2018-06-25T16:21:20.410Z,0.80
2018-06-25T16:23:57.048Z,1.60
2018-06-25T16:26:33.910Z,1.50
2018-06-25T16:29:10.443Z,0.80
2018-06-25T16:31:46.987Z,0.83
2018-06-25T16:34:23.594Z,0.97
2018-06-25T16:37:00.307Z,1.00
2018-06-25T16:39:38.991Z,1.03
2018-06-25T16:42:16.008Z,1.00
2018-06-25T16:45:03.213Z,1.30
2018-06-25T16:47:40.898Z,1.23
2018-06-25T16:50:18.252Z,1.20
2018-06-25T16:52:54.909Z,1.03
2018-06-25T16:55:36.888Z,1.50
2018-06-25T16:58:13.410Z,1.33
2018-06-25T17:01:19.892Z,1.40
2018-06-25T17:03:56.599Z,1.67
2018-06-25T17:06:33.503Z,1.30
2018-06-25T17:09:14.038Z,1.87
2018-06-25T17:11:57.529Z,1.77
2018-06-25T17:14:36.674Z,1.50
2018-06-25T17:17:14.484Z,1.43
2018-06-25T17:20:09.638Z,1.60
2018-06-25T17:22:48.254Z,1.33
2018-06-25T17:25:24.746Z,1.60
2018-06-25T17:28:02.439Z,1.80
2018-06-25T17:30:39.052Z,2.00
2018-06-25T17:33:15.949Z,1.47
2018-06-25T17:36:02.212Z,2.77
2018-06-25T17:38:49.401Z,3.97
2018-06-25T17:41:25.741Z,2.20
2018-06-25T17:44:03.215Z,2.40
2018-06-25T17:46:41.621Z,2.07
2018-06-25T17:49:18.185Z,2.50
2018-06-25T17:51:54.731Z,7.13
2018-06-25T17:54:31.565Z,2.43
2018-06-25T17:57:08.249Z,2.60
2018-06-25T17:59:44.760Z,2.70
2018-06-25T18:02:21.543Z,2.83
2018-06-25T18:04:58.261Z,3.20
2018-06-25T18:07:36.635Z,3.00
2018-06-25T18:10:14.291Z,3.70
2018-06-25T18:12:51.035Z,3.03
2018-06-25T18:15:28.347Z,2.60
2018-06-25T18:18:05.179Z,2.73
2018-06-25T18:20:43.355Z,2.20
2018-06-25T18:23:20.084Z,2.47
2018-06-25T18:25:57.462Z,2.67
2018-06-25T18:28:37.980Z,3.07
2018-06-25T18:31:23.801Z,2.80
2018-06-25T18:34:00.399Z,2.30
2018-06-25T18:36:38.161Z,2.30
2018-06-25T18:39:15.081Z,2.00
2018-06-25T18:41:52.472Z,2.77
2018-06-25T18:44:30.179Z,2.80
2018-06-25T18:47:07.702Z,2.27
2018-06-25T18:49:46.880Z,2.70
2018-06-25T18:52:24.746Z,2.27
2018-06-25T18:55:01.340Z,3.07
2018-06-25T18:57:38.132Z,2.80
2018-06-25T19:00:20.499Z,6.00
2018-06-25T19:02:57.479Z,3.13
2018-06-25T19:05:34.186Z,4.23
2018-06-25T19:08:14.065Z,2.90
2018-06-25T19:10:50.565Z,3.13
2018-06-25T19:13:28.674Z,4.60
2018-06-25T19:16:05.322Z,8.63
2018-06-25T19:18:42.079Z,3.00
2018-06-25T19:21:21.043Z,2.60
2018-06-25T19:23:58.534Z,2.50
2018-06-25T19:26:35.523Z,2.70
2018-06-25T19:29:15.943Z,2.47
2018-06-25T19:33:31.114Z,2.83
2018-06-25T19:36:10.205Z,3.20
2018-06-25T19:38:54.786Z,3.83
2018-06-25T19:41:39.458Z,3.10
2018-06-25T19:44:19.840Z,8.07
2018-06-25T19:46:57.548Z,4.50
2018-06-25T19:49:39.498Z,3.30
2018-06-25T19:52:21.235Z,4.47
2018-06-25T19:55:00.094Z,3.97
2018-06-25T19:58:09.897Z,4.97
2018-06-25T20:00:48.629Z,6.37
2018-06-25T20:03:26.553Z,5.90
2018-06-25T20:06:08.511Z,3.90
2018-06-25T20:08:45.300Z,3.00
2018-06-25T20:11:22.106Z,3.50
2018-06-25T20:13:58.713Z,3.50
2018-06-25T20:16:35.369Z,3.33
2018-06-25T20:19:13.829Z,2.83
2018-06-25T20:21:51.428Z,2.93
2018-06-25T20:24:28.029Z,2.97
2018-06-25T20:27:04.905Z,2.90
2018-06-25T20:29:43.294Z,2.90
2018-06-25T20:32:21.692Z,2.57
2018-06-25T20:34:58.859Z,3.10
2018-06-25T20:37:37.452Z,3.10
2018-06-25T20:40:16.696Z,2.77
2018-06-25T20:42:54.530Z,3.00
2018-06-25T20:45:31.573Z,2.87
2018-06-25T20:48:08.457Z,3.00
2018-06-25T20:50:46.278Z,3.27
2018-06-25T20:53:47.620Z,2.97
2018-06-25T20:56:36.132Z,3.00
2018-06-25T20:59:17.447Z,2.87
2018-06-25T21:01:56.130Z,3.57
2018-06-25T21:04:36.629Z,3.37
2018-06-25T21:07:14.025Z,4.10
2018-06-25T21:09:50.652Z,3.80
2018-06-25T21:12:27.956Z,4.60
2018-06-25T21:15:05.283Z,4.17
2018-06-25T21:17:43.578Z,4.63
2018-06-25T21:20:20.240Z,4.40
2018-06-25T21:22:57.200Z,4.70
2018-06-25T21:25:34.775Z,4.97
2018-06-25T21:28:14.247Z,4.57
2018-06-25T21:30:52.711Z,4.70
2018-06-25T21:33:38.848Z,5.00
2018-06-25T21:36:16.243Z,4.60
2018-06-25T21:38:53.411Z,4.67
2018-06-25T21:41:31.268Z,4.63
2018-06-25T21:44:07.941Z,5.30
2018-06-25T21:46:45.600Z,6.53
2018-06-25T21:49:22.150Z,5.50
2018-06-25T21:51:59.638Z,5.30
2018-06-25T21:54:36.723Z,6.17
2018-06-25T21:57:13.401Z,6.67
2018-06-25T21:59:55.318Z,5.50
2018-06-25T22:02:32.545Z,6.30
2018-06-25T22:05:14.103Z,5.63
2018-06-25T22:07:51.502Z,6.60
2018-06-25T22:10:28.289Z,5.80
2018-06-25T22:13:11.771Z,6.10
2018-06-25T22:15:55.404Z,6.10
2018-06-25T22:18:34.132Z,6.90
2018-06-25T22:21:11.643Z,6.57
2018-06-25T22:23:49.515Z,5.97
2018-06-25T22:26:26.174Z,6.60
2018-06-25T22:29:03.509Z,6.57
2018-06-25T22:31:40.768Z,5.97
2018-06-25T22:34:17.559Z,6.63
2018-06-25T22:36:55.355Z,6.10
2018-06-25T22:39:32.932Z,6.27
2018-06-25T22:42:09.693Z,6.63
2018-06-25T22:44:47.002Z,7.03
2018-06-25T22:47:23.842Z,6.23
2018-06-25T22:50:00.461Z,7.23
2018-06-25T22:52:38.324Z,6.30
2018-06-25T22:55:14.893Z,6.53
2018-06-25T22:57:51.622Z,6.57
2018-06-25T23:00:29.059Z,6.60
2018-06-25T23:03:06.000Z,5.73
2018-06-25T23:05:42.482Z,6.70
2018-06-25T23:08:19.234Z,7.13
2018-06-25T23:10:55.750Z,5.80
2018-06-25T23:13:33.308Z,6.27
2018-06-25T23:16:11.776Z,6.47
2018-06-25T23:18:48.518Z,5.73
2018-06-25T23:21:25.122Z,7.17
2018-06-25T23:24:01.657Z,6.40
2018-06-25T23:26:38.213Z,6.43
2018-06-25T23:29:14.805Z,5.40
2018-06-25T23:31:51.447Z,6.50
2018-06-25T23:34:27.857Z,6.70
2018-06-25T23:37:04.598Z,6.10
2018-06-25T23:39:42.239Z,6.50
2018-06-25T23:42:19.045Z,6.40
2018-06-25T23:45:06.520Z,6.70
2018-06-25T23:47:43.215Z,7.33
2018-06-25T23:50:19.670Z,6.13
2018-06-25T23:52:56.389Z,6.53
2018-06-25T23:55:33.138Z,6.43
2018-06-25T23:58:10.038Z,7.03
